createdAt,value
2023-03-29T10:48:58.017Z,50
2023-03-29T10:53:58.187Z,49
2023-03-29T10:58:55.899Z,45
2023-03-29T11:03:55.947Z,45
2023-03-29T11:08:55.353Z,46
2023-03-29T11:13:57.542Z,46
2023-03-29T11:18:52.584Z,46
2023-03-29T11:23:52.262Z,45
2023-03-29T11:28:51.612Z,45
2023-03-29T11:33:51.412Z,47
2023-03-29T11:38:48.556Z,48
2023-03-29T11:43:48.150Z,46
2023-03-29T11:48:47.267Z,47
2023-03-29T11:53:47.325Z,47
2023-03-29T11:58:49.388Z,47
2023-03-29T12:03:47.215Z,46
2023-03-29T12:08:46.605Z,48
2023-03-29T12:13:46.561Z,47
2023-03-29T12:18:47.378Z,48
2023-03-29T12:23:44.009Z,48
2023-03-29T12:28:43.612Z,49
2023-03-29T12:33:43.498Z,49
2023-03-29T12:38:43.085Z,50
2023-03-29T12:43:40.527Z,51
2023-03-29T12:48:40.666Z,51
2023-03-29T12:53:40.562Z,51
2023-03-29T12:58:41.729Z,52
2023-03-29T13:05:02.816Z,53
2023-03-29T13:10:01.969Z,53
2023-03-29T13:15:02.147Z,56
2023-03-29T13:19:59.125Z,59
2023-03-29T13:24:58.750Z,62
2023-03-29T13:29:57.961Z,65
2023-03-29T13:34:57.683Z,67
2023-03-29T13:39:57.046Z,66
2023-03-29T13:44:56.768Z,66
2023-03-29T13:49:56.914Z,66
2023-03-29T13:54:56.502Z,65
2023-03-29T13:59:14.524Z,66
2023-03-29T14:04:01.695Z,66
2023-03-29T14:09:01.666Z,64
2023-03-29T14:14:00.857Z,64
2023-03-29T14:19:02.196Z,63
2023-03-29T14:23:58.796Z,64
2023-03-29T14:28:58.732Z,61
2023-03-29T14:33:58.403Z,62
2023-03-29T14:38:57.809Z,62
2023-03-29T14:43:57.459Z,60
2023-03-29T14:48:57.623Z,59
2023-03-29T14:53:57.284Z,59
2023-03-29T14:58:58.298Z,60
2023-03-29T15:03:55.654Z,59
2023-03-29T15:09:08.534Z,58
2023-03-29T15:13:54.755Z,58
2023-03-29T15:18:54.635Z,57
2023-03-29T15:23:52.249Z,58
2023-03-29T15:29:46.183Z,58
2023-03-29T15:33:52.450Z,56
2023-03-29T15:38:55.696Z,57
2023-03-29T15:43:50.729Z,57
2023-03-29T15:48:50.039Z,58
2023-03-29T15:53:51.096Z,59
2023-03-29T15:58:47.391Z,59
2023-03-29T16:03:48.143Z,59
2023-03-29T16:08:47.249Z,59
2023-03-29T16:13:46.719Z,59
2023-03-29T16:18:46.310Z,60
2023-03-29T16:23:46.332Z,61
2023-03-29T16:28:45.925Z,62
2023-03-29T16:33:46.842Z,62
2023-03-29T16:38:43.462Z,63
2023-03-29T16:43:43.257Z,64
2023-03-29T16:48:42.923Z,65
2023-03-29T16:53:42.858Z,65
2023-03-29T16:58:40.200Z,66
2023-03-29T17:05:00.697Z,69
2023-03-29T17:09:59.951Z,68
2023-03-29T17:14:59.519Z,68
2023-03-29T17:19:59.272Z,71
2023-03-29T17:24:59.101Z,72
2023-03-29T17:29:58.447Z,71
2023-03-29T17:34:59.479Z,71
2023-03-29T17:39:55.981Z,72
2023-03-29T17:44:56.038Z,73
2023-03-29T17:49:55.568Z,73
2023-03-29T17:54:55.071Z,73
2023-03-29T17:59:20.974Z,74
2023-03-29T18:04:20.779Z,75
2023-03-29T18:09:20.425Z,76
2023-03-29T18:14:21.389Z,76
2023-03-29T18:19:17.878Z,77
2023-03-29T18:24:17.870Z,77
2023-03-29T18:29:20.344Z,76
2023-03-29T18:34:17.609Z,77
2023-03-29T18:39:14.824Z,78
2023-03-29T18:44:14.570Z,78
2023-03-29T18:49:13.996Z,79
2023-03-29T18:54:13.400Z,79
2023-03-29T18:58:59.848Z,80
2023-03-29T19:03:59.905Z,79
2023-03-29T19:08:59.624Z,79
2023-03-29T19:13:59.269Z,79
2023-03-29T19:19:00.413Z,80
2023-03-29T19:23:57.688Z,80
2023-03-29T19:28:56.877Z,81
2023-03-29T19:33:56.717Z,81
2023-03-29T19:38:56.029Z,81
2023-03-29T19:43:55.605Z,82
2023-03-29T19:48:55.682Z,82
2023-03-29T19:53:55.347Z,82
2023-03-29T19:58:56.417Z,83
2023-03-29T20:03:54.579Z,83
2023-03-29T20:08:53.449Z,83
2023-03-29T20:13:52.850Z,84
2023-03-29T20:18:53.005Z,84
2023-03-29T20:23:50.401Z,83
2023-03-29T20:28:49.698Z,83
2023-03-29T20:33:49.059Z,83
2023-03-29T20:38:48.499Z,83
2023-03-29T20:43:48.554Z,83
2023-03-29T20:48:47.602Z,84
2023-03-29T20:53:47.743Z,84
2023-03-29T20:58:47.233Z,84
2023-03-29T21:00:34.154Z,84
2023-03-29T21:05:18.437Z,84
2023-03-29T21:10:18.690Z,84
2023-03-29T21:15:17.433Z,84
2023-03-29T21:20:17.650Z,84
2023-03-29T21:25:18.111Z,84
2023-03-29T21:30:18.450Z,82
2023-03-29T21:35:15.836Z,78
2023-03-29T21:40:15.830Z,71
2023-03-29T21:45:17.160Z,64
2023-03-29T21:50:14.267Z,60
2023-03-29T21:55:13.693Z,56
2023-03-29T22:04:29.453Z,54
2023-03-29T22:09:17.360Z,53
2023-03-29T22:14:17.723Z,52
2023-03-29T22:19:16.508Z,52
2023-03-29T22:24:17.099Z,51
2023-03-29T22:29:16.811Z,51
2023-03-29T22:34:17.787Z,51
2023-03-29T22:39:15.160Z,51
2023-03-29T22:44:15.235Z,51
2023-03-29T22:49:14.233Z,51
2023-03-29T22:54:14.534Z,51
2023-03-29T22:59:14.166Z,51
2023-03-29T23:04:15.037Z,53
2023-03-29T23:09:01.704Z,53
2023-03-29T23:14:01.758Z,54
2023-03-29T23:19:01.378Z,53
2023-03-29T23:24:02.514Z,53
2023-03-29T23:28:58.979Z,54
2023-03-29T23:33:58.808Z,53
2023-03-29T23:38:58.482Z,53
2023-03-29T23:43:58.246Z,53
2023-03-29T23:48:55.799Z,54
2023-03-29T23:53:55.635Z,54
2023-03-29T23:58:55.032Z,55
